Time;durP1;ratioP1;P1;durP2;ratioP2;P2;SDS_P1;SDS_P2;PMS_P1;PMS_P2;Temp;Humidity;BMP_temperature;BMP_pressure;BME280_temperature;BME280_humidity;BME280_pressure;Samples;Min_cycle;Max_cycle;Signal;HPM_P1;HPM_P2
2022/08/22 00:00:15;;;;;;;15.82;7.25;;;;;;;19.27;59.66;100545.81;5033902;28;20053;-76
2022/08/22 00:02:41;;;;;;;11.82;7.80;;;;;;;19.26;59.31;100546.84;5016172;28;20041;-76
2022/08/22 00:05:45;;;;;;;9.75;7.40;;;;;;;19.25;59.71;100547.81;5032443;28;20033;-75
2022/08/22 00:08:32;;;;;;;8.68;7.00;;;;;;;19.25;59.18;100545.09;5032369;28;20048;-74
2022/08/22 00:11:04;;;;;;;9.80;7.10;;;;;;;19.22;59.37;100543.56;5032878;28;20188;-74
2022/08/22 00:13:48;;;;;;;14.38;7.97;;;;;;;19.11;59.17;100539.19;5032263;28;20037;-75
2022/08/22 00:16:27;;;;;;;11.18;7.28;;;;;;;19.22;59.03;100543.56;5032259;28;20079;-74
2022/08/22 00:19:08;;;;;;;12.18;8.15;;;;;;;19.25;59.10;100551.38;5015908;28;20045;-74
2022/08/22 00:21:47;;;;;;;11.23;7.05;;;;;;;19.28;58.86;100553.78;5016544;28;20034;-74
2022/08/22 00:24:22;;;;;;;10.23;7.75;;;;;;;19.30;58.85;100549.09;5032003;28;20057;-74
2022/08/22 00:27:26;;;;;;;9.90;7.53;;;;;;;19.36;58.40;100558.47;5015769;28;20099;-75
2022/08/22 00:30:14;;;;;;;9.57;7.57;;;;;;;19.36;58.17;100559.31;4995697;28;20135;-74
2022/08/22 00:32:58;;;;;;;11.73;7.43;;;;;;;19.38;58.48;100551.06;5016130;28;20068;-75
2022/08/22 00:35:46;;;;;;;14.13;8.50;;;;;;;19.41;58.21;100551.59;5031855;28;20523;-75
2022/08/22 00:38:26;;;;;;;10.07;7.30;;;;;;;19.41;58.37;100559.75;5031965;28;20153;-80
2022/08/22 00:41:05;;;;;;;8.55;7.70;;;;;;;19.45;58.39;100556.72;5033226;28;20521;-79
2022/08/22 00:43:43;;;;;;;13.75;8.57;;;;;;;19.44;58.38;100560.44;5015997;28;20045;-75
2022/08/22 00:46:38;;;;;;;12.07;9.98;;;;;;;19.42;58.37;100566.00;5031739;28;20523;-75
2022/08/22 00:49:16;;;;;;;11.82;9.15;;;;;;;19.42;58.49;100566.88;5030944;28;20488;-75
2022/08/22 00:52:17;;;;;;;12.25;10.63;;;;;;;19.47;58.30;100563.69;5015390;28;20510;-74
2022/08/22 00:55:07;;;;;;;28.63;19.67;;;;;;;19.34;58.48;100553.22;5031729;28;20508;-75
2022/08/22 00:57:45;;;;;;;35.97;22.42;;;;;;;19.33;58.76;100567.78;5015229;28;20520;-74
2022/08/22 01:00:13;;;;;;;33.60;24.55;;;;;;;19.30;59.01;100578.06;5032827;28;20054;-75
2022/08/22 01:03:07;;;;;;;33.58;23.25;;;;;;;19.18;59.41;100569.25;5031917;28;20041;-74
2022/08/22 01:05:56;;;;;;;19.33;15.13;;;;;;;19.22;59.38;100569.78;5015434;28;20155;-75
2022/08/22 01:08:25;;;;;;;19.27;14.13;;;;;;;19.26;59.10;100576.66;5028004;28;20084;-72
2022/08/22 01:11:04;;;;;;;;;;;;;;;19.24;58.62;100567.81;5031650;28;20570;-72
2022/08/22 01:13:42;;;;;;;20.45;15.27;;;;;;;19.25;59.09;100574.94;5015060;28;20273;-75
2022/08/22 01:16:20;;;;;;;24.52;16.65;;;;;;;19.27;59.00;100578.34;5031507;28;20522;-74
2022/08/22 01:19:06;;;;;;;32.37;23.07;;;;;;;19.14;59.46;100578.66;4998614;28;20140;-73
2022/08/22 01:21:51;;;;;;;35.70;26.05;;;;;;;19.04;59.63;100576.00;5015085;28;20049;-75
2022/08/22 01:25:16;;;;;;;33.67;25.42;;;;;;;19.06;59.50;100578.56;5031398;28;20175;-74
2022/08/22 01:28:11;;;;;;;27.20;20.60;;;;;;;19.06;59.55;100565.00;5034208;28;20060;-74
2022/08/22 01:31:15;;;;;;;26.45;19.38;;;;;;;19.00;59.74;100584.59;4996944;28;20052;-75
2022/08/22 01:34:18;;;;;;;29.67;21.25;;;;;;;18.99;59.44;100591.84;5035173;28;20045;-74
2022/08/22 01:37:05;;;;;;;27.52;16.30;;;;;;;18.89;59.43;100580.19;5036799;28;20555;-74
2022/08/22 01:39:43;;;;;;;23.13;15.10;;;;;;;18.80;59.76;100575.63;5018733;28;20516;-74
2022/08/22 01:42:27;;;;;;;16.75;13.23;;;;;;;18.89;59.73;100596.44;5002482;28;20568;-75
2022/08/22 01:45:01;;;;;;;25.77;13.63;;;;;;;18.69;60.19;100582.91;5035340;28;20061;-75
2022/08/22 01:47:38;;;;;;;21.02;15.50;;;;;;;18.53;60.78;100589.88;5035364;28;20056;-74
2022/08/22 01:50:28;;;;;;;23.83;19.90;;;;;;;18.53;61.28;100607.00;5018431;28;20088;-74
2022/08/22 01:53:01;;;;;;;31.77;18.67;;;;;;;18.52;61.37;100604.44;5018066;28;20060;-74
2022/08/22 01:55:40;;;;;;;21.85;11.52;;;;;;;18.43;61.25;100600.75;5034853;28;20049;-73
2022/08/22 01:58:24;;;;;;;15.52;9.48;;;;;;;18.28;61.66;100603.03;5001948;28;20041;-73
2022/08/22 02:01:13;;;;;;;12.13;9.88;;;;;;;18.18;61.92;100608.41;5018259;28;20041;-74
2022/08/22 02:04:02;;;;;;;17.90;10.80;;;;;;;18.12;62.13;100613.53;5034912;28;20052;-73
2022/08/22 02:06:36;;;;;;;;;;;;;;;18.13;62.37;100612.53;5016856;28;20064;-72
2022/08/22 02:09:29;;;;;;;13.25;9.95;;;;;;;18.14;62.04;100622.38;5018045;28;19928;-73
2022/08/22 02:12:17;;;;;;;21.02;13.18;;;;;;;18.17;61.94;100627.50;5035083;28;20520;-76
2022/08/22 02:14:59;;;;;;;28.23;18.08;;;;;;;18.28;62.15;100619.25;5033875;28;20497;-74
2022/08/22 02:17:31;;;;;;;18.15;11.73;;;;;;;18.34;61.62;100625.94;5034605;28;20049;-75
2022/08/22 02:20:02;;;;;;;18.08;14.75;;;;;;;18.42;61.70;100615.25;5002275;28;20045;-75
2022/08/22 02:22:52;;;;;;;33.55;19.20;;;;;;;18.60;61.27;100629.78;5007306;28;20041;-74
2022/08/22 02:25:28;;;;;;;37.55;21.42;;;;;;;18.68;61.44;100631.78;5022070;28;20071;-72
2022/08/22 02:28:09;;;;;;;22.23;17.75;;;;;;;18.82;60.58;100625.13;5051439;28;20056;-74
2022/08/22 02:30:59;;;;;;;25.48;17.92;;;;;;;18.87;60.02;100620.09;5018177;28;20045;-74
2022/08/22 02:33:41;;;;;;;18.27;16.05;;;;;;;18.81;60.94;100642.38;5017821;28;20048;-78
2022/08/22 02:36:39;;;;;;;22.92;17.27;;;;;;;18.85;61.05;100646.50;5017599;28;20187;-75
2022/08/22 02:39:47;;;;;;;29.25;20.35;;;;;;;18.73;61.07;100636.78;5032959;28;20045;-76
2022/08/22 02:42:27;;;;;;;26.38;21.60;;;;;;;18.76;60.96;100634.66;5050384;28;20037;-78
2022/08/22 02:45:05;;;;;;;31.77;22.45;;;;;;;18.89;61.02;100629.81;5017260;28;20072;-77
2022/08/22 02:47:44;;;;;;;32.78;22.75;;;;;;;18.76;60.48;100602.16;5035379;28;20052;-76
2022/08/22 02:50:37;;;;;;;28.40;23.60;;;;;;;18.97;60.83;100631.78;5033555;28;20170;-80
2022/08/22 02:53:19;;;;;;;32.97;24.00;;;;;;;18.95;61.02;100632.91;5051315;28;20063;-77
2022/08/22 02:56:18;;;;;;;34.97;23.35;;;;;;;18.89;60.85;100637.09;5020750;28;20045;-79
2022/08/22 02:58:58;;;;;;;31.63;23.08;;;;;;;18.81;61.36;100636.97;4989966;28;20204;-77
2022/08/22 03:01:26;;;;;;;32.13;21.58;;;;;;;18.81;61.75;100647.78;5035050;28;20046;-76
2022/08/22 03:04:26;;;;;;;24.33;17.60;;;;;;;18.83;61.96;100648.47;5036250;28;20040;-86
2022/08/22 03:07:04;;;;;;;20.25;15.63;;;;;;;18.93;61.75;100652.06;5036837;28;20167;-75
2022/08/22 03:09:44;;;;;;;19.88;14.88;;;;;;;18.92;61.60;100639.50;5019922;28;20102;-75
2022/08/22 03:12:34;;;;;;;25.63;15.35;;;;;;;18.97;61.93;100655.31;5020505;28;20048;-76
2022/08/22 03:15:17;;;;;;;24.38;15.73;;;;;;;19.13;61.21;100651.00;5020376;28;20045;-74
2022/08/22 03:17:49;;;;;;;23.85;16.50;;;;;;;19.26;61.10;100648.00;5047611;28;20136;-75
2022/08/22 03:20:41;;;;;;;23.60;16.15;;;;;;;19.48;60.62;100652.19;5017051;28;20037;-76
2022/08/22 03:23:36;;;;;;;22.45;16.88;;;;;;;19.62;60.29;100654.44;5030232;28;20049;-77
2022/08/22 03:26:37;;;;;;;36.08;16.95;;;;;;;19.77;59.94;100659.38;5029734;28;20452;-75
2022/08/22 03:29:08;;;;;;;33.35;17.88;;;;;;;19.80;60.21;100661.81;5014641;28;20527;-74
2022/08/22 03:31:34;;;;;;;33.13;18.83;;;;;;;19.83;59.97;100661.50;5016672;28;20064;-75
2022/08/22 03:34:23;;;;;;;35.67;19.13;;;;;;;19.82;60.25;100666.09;5052980;28;20044;-76
2022/08/22 03:37:10;;;;;;;41.67;18.50;;;;;;;19.97;59.84;100658.28;5053192;28;20072;-75
2022/08/22 03:39:58;;;;;;;32.97;20.05;;;;;;;20.30;59.32;100669.50;5032673;28;20044;-76
2022/08/22 03:42:40;;;;;;;28.45;18.70;;;;;;;20.53;58.95;100662.63;5016151;28;20136;-74
2022/08/22 03:45:25;;;;;;;28.52;19.17;;;;;;;20.77;58.13;100661.19;5016399;28;20140;-75
2022/08/22 03:47:51;;;;;;;32.28;20.10;;;;;;;21.02;57.42;100676.66;5032927;28;20049;-75
2022/08/22 03:50:54;;;;;;;40.08;19.70;;;;;;;21.04;56.97;100642.03;5015396;28;20060;-76
2022/08/22 03:53:38;;;;;;;40.13;21.17;;;;;;;21.48;56.35;100680.09;5017967;28;20080;-76
2022/08/22 03:56:03;;;;;;;34.17;21.40;;;;;;;21.62;55.85;100673.19;5032533;28;20050;-76
2022/08/22 03:58:47;;;;;;;38.53;20.85;;;;;;;21.76;55.71;100667.13;5041714;28;20064;-77
2022/08/22 04:01:44;;;;;;;29.77;21.25;;;;;;;21.95;55.10;100676.06;4997831;28;20523;-78
2022/08/22 04:04:30;;;;;;;33.60;20.55;;;;;;;22.09;54.48;100674.59;5047719;28;20492;-75
2022/08/22 04:07:34;;;;;;;34.53;20.40;;;;;;;22.24;54.14;100673.81;4998151;28;20523;-75
2022/08/22 04:10:34;;;;;;;28.40;19.70;;;;;;;22.29;53.60;100673.31;4990518;28;20053;-75
2022/08/22 04:13:28;;;;;;;42.22;20.90;;;;;;;22.35;53.31;100679.97;5030846;28;20064;-76
2022/08/22 04:16:03;;;;;;;29.42;19.85;;;;;;;22.52;53.18;100676.25;5015693;28;20135;-75
2022/08/22 04:18:32;;;;;;;32.20;18.02;;;;;;;22.73;53.04;100678.50;5049052;28;20045;-75
2022/08/22 04:21:05;;;;;;;29.08;18.58;;;;;;;22.89;52.02;100666.75;5015608;28;20105;-74
2022/08/22 04:23:35;;;;;;;30.98;16.92;;;;;;;22.99;51.17;100667.47;5032263;28;20045;-75
2022/08/22 04:26:06;;;;;;;29.38;17.65;;;;;;;23.08;50.87;100671.88;5032038;28;20508;-75
2022/08/22 04:28:48;;;;;;;28.88;19.17;;;;;;;23.21;50.70;100671.38;5033123;28;20492;-76
2022/08/22 04:31:21;;;;;;;27.63;17.85;;;;;;;23.19;50.53;100662.50;5032413;28;20539;-75
2022/08/22 04:34:02;;;;;;;34.17;17.80;;;;;;;23.30;49.94;100664.03;5032312;28;20080;-76
2022/08/22 04:36:41;;;;;;;39.33;17.40;;;;;;;23.40;49.92;100664.69;5048526;28;20409;-75
2022/08/22 04:39:19;;;;;;;43.10;17.77;;;;;;;23.37;49.47;100663.16;5015297;28;20497;-76
2022/08/22 04:41:56;;;;;;;34.77;18.33;;;;;;;23.31;49.66;100672.03;5031594;28;20087;-76
2022/08/22 04:44:26;;;;;;;48.10;18.50;;;;;;;23.21;49.57;100671.38;5015522;28;20261;-76
2022/08/22 04:47:12;;;;;;;38.08;18.65;;;;;;;23.28;49.23;100677.81;5015407;28;20492;-73
2022/08/22 04:49:56;;;;;;;46.20;19.58;;;;;;;23.26;49.38;100668.97;5014780;28;20060;-75
2022/08/22 04:52:39;;;;;;;32.45;19.00;;;;;;;23.40;49.21;100676.47;5015091;28;20057;-75
2022/08/22 04:55:23;;;;;;;37.65;20.45;;;;;;;23.45;49.19;100667.75;5015215;28;20144;-75
2022/08/22 04:58:00;;;;;;;39.03;20.95;;;;;;;23.64;49.31;100667.34;5014905;28;20444;-77
2022/08/22 05:00:38;;;;;;;33.42;20.50;;;;;;;23.85;48.84;100669.53;5014919;28;20063;-75
2022/08/22 05:03:11;;;;;;;37.88;20.40;;;;;;;24.02;48.51;100670.31;4998805;28;20037;-75
2022/08/22 05:05:39;;;;;;;41.03;21.83;;;;;;;24.02;48.47;100666.72;5031317;28;20487;-77
2022/08/22 05:08:10;;;;;;;43.63;21.80;;;;;;;24.01;47.89;100667.75;5032639;28;20045;-75
2022/08/22 05:10:42;;;;;;;39.22;21.95;;;;;;;24.14;48.19;100671.59;5031759;28;20536;-75
2022/08/22 05:13:17;;;;;;;30.02;20.75;;;;;;;24.37;47.92;100670.78;5047859;28;20033;-75
2022/08/22 05:15:47;;;;;;;31.95;17.27;;;;;;;24.50;46.82;100662.06;5014697;28;20053;-76
2022/08/22 05:18:24;;;;;;;31.92;13.57;;;;;;;24.33;46.13;100672.19;5032670;28;20524;-76
2022/08/22 05:20:52;;;;;;;31.35;16.25;;;;;;;24.18;46.83;100656.59;5031396;28;20049;-77
2022/08/22 05:23:24;;;;;;;;;;;;;;;24.24;46.48;100674.13;5031381;28;20128;-75
2022/08/22 05:25:56;;;;;;;18.80;10.70;;;;;;;24.19;46.72;100671.94;5014975;28;19920;-75
2022/08/22 05:28:30;;;;;;;22.92;9.80;;;;;;;24.55;46.30;100678.75;5014728;28;20041;-75
2022/08/22 05:30:56;;;;;;;18.55;9.93;;;;;;;24.89;46.22;100670.13;5047641;28;20461;-75
2022/08/22 05:33:31;;;;;;;20.17;10.82;;;;;;;25.19;45.79;100677.41;5032270;28;20488;-75
2022/08/22 05:36:20;;;;;;;20.40;9.75;;;;;;;25.28;44.65;100675.44;5031044;28;20103;-76
2022/08/22 05:39:12;;;;;;;17.58;8.43;;;;;;;25.41;44.19;100672.91;5014958;28;20045;-76
2022/08/22 05:41:39;;;;;;;14.90;8.10;;;;;;;25.63;43.88;100682.09;5047478;28;20126;-77
2022/08/22 05:44:23;;;;;;;12.10;7.40;;;;;;;25.89;43.45;100678.06;5031328;28;20054;-75
2022/08/22 05:47:04;;;;;;;16.38;7.45;;;;;;;26.15;42.43;100672.06;5030981;28;20048;-76
2022/08/22 05:49:39;;;;;;;10.52;6.85;;;;;;;26.24;41.39;100672.81;5047066;28;20057;-75
2022/08/22 05:52:33;;;;;;;11.32;6.55;;;;;;;26.17;39.43;100656.25;5047292;28;20152;-75
2022/08/22 05:55:25;;;;;;;8.55;6.43;;;;;;;26.12;39.78;100659.59;4998108;28;20041;-75
2022/08/22 05:58:17;;;;;;;14.18;7.80;;;;;;;26.12;39.12;100658.75;5014326;28;20052;-75
2022/08/22 06:00:47;;;;;;;10.45;6.50;;;;;;;26.17;39.49;100645.31;5023286;28;20148;-76
2022/08/22 06:03:30;;;;;;;8.77;6.53;;;;;;;26.55;39.67;100669.81;5014597;28;20057;-75
2022/08/22 06:06:02;;;;;;;13.55;6.40;;;;;;;26.69;37.74;100659.81;5014394;28;20037;-75
2022/08/22 06:08:41;;;;;;;11.00;6.20;;;;;;;26.54;37.75;100659.88;5014155;28;20045;-76
2022/08/22 06:11:16;;;;;;;11.57;7.47;;;;;;;26.53;38.19;100660.94;5014292;28;20044;-75
2022/08/22 06:13:53;;;;;;;10.38;6.80;;;;;;;26.54;37.98;100657.13;5017653;28;20099;-76
2022/08/22 06:16:34;;;;;;;11.18;6.75;;;;;;;26.63;38.60;100661.47;5035630;28;20041;-76
2022/08/22 06:19:03;;;;;;;11.52;6.70;;;;;;;26.85;38.20;100654.94;5035431;28;20071;-75
2022/08/22 06:21:36;;;;;;;11.60;7.20;;;;;;;26.96;38.00;100655.44;5050854;28;20041;-76
2022/08/22 06:24:07;;;;;;;24.33;8.68;;;;;;;26.75;38.61;100648.94;5017967;28;20045;-75
2022/08/22 06:26:42;;;;;;;18.55;8.40;;;;;;;26.71;38.98;100646.78;5035683;28;20224;-75
2022/08/22 06:29:16;;;;;;;16.05;8.07;;;;;;;27.01;39.01;100639.25;5034230;28;20479;-75
2022/08/22 06:31:46;;;;;;;13.73;8.00;;;;;;;27.32;38.79;100634.22;5035289;28;20037;-76
2022/08/22 06:34:36;;;;;;;16.13;7.47;;;;;;;27.58;37.99;100632.69;5035114;28;20041;-76
2022/08/22 06:37:05;;;;;;;19.13;7.55;;;;;;;27.76;37.72;100623.94;5017720;28;20083;-76
2022/08/22 06:39:34;;;;;;;16.02;7.68;;;;;;;28.01;37.21;100627.00;5033904;28;20127;-76
2022/08/22 06:42:08;;;;;;;16.13;7.15;;;;;;;28.00;36.68;100630.81;5035016;28;20067;-75
2022/08/22 06:44:38;;;;;;;15.00;7.57;;;;;;;27.55;37.25;100613.88;5017497;28;20056;-75
2022/08/22 06:47:11;;;;;;;20.27;7.72;;;;;;;27.44;37.71;100622.66;5034999;28;20041;-76
2022/08/22 06:49:40;;;;;;;10.80;7.25;;;;;;;27.64;37.52;100615.38;5016872;28;20053;-75
2022/08/22 06:52:11;;;;;;;18.58;6.65;;;;;;;27.82;37.47;100623.13;5033608;28;20131;-75
2022/08/22 06:54:42;;;;;;;12.77;6.60;;;;;;;28.04;36.86;100621.94;5050759;28;20049;-75
2022/08/22 06:57:34;;;;;;;8.70;6.57;;;;;;;27.78;36.60;100617.19;5033730;28;20041;-77
2022/08/22 07:00:05;;;;;;;22.60;7.50;;;;;;;27.57;37.39;100620.84;5017093;28;20477;-75
2022/08/22 07:02:39;;;;;;;14.57;7.00;;;;;;;27.78;37.11;100611.69;5034783;28;20485;-75
2022/08/22 07:05:08;;;;;;;18.52;6.65;;;;;;;28.14;37.10;100599.56;5000210;28;20045;-76
2022/08/22 07:07:36;;;;;;;17.35;7.13;;;;;;;28.64;36.26;100616.63;5034495;28;20046;-74
2022/08/22 07:10:03;;;;;;;14.93;6.75;;;;;;;28.92;35.35;100594.38;5033401;28;20126;-75
2022/08/22 07:12:34;;;;;;;15.75;6.60;;;;;;;29.13;34.46;100609.88;5034484;28;20037;-76
2022/08/22 07:15:17;;;;;;;17.83;6.78;;;;;;;29.14;33.91;100606.03;5000581;28;20049;-76
2022/08/22 07:17:53;;;;;;;17.38;6.57;;;;;;;29.23;33.97;100595.69;5034863;28;20126;-75
2022/08/22 07:20:40;;;;;;;20.38;6.78;;;;;;;28.97;33.67;100589.09;5000561;28;20163;-75
2022/08/22 07:23:11;;;;;;;12.93;6.95;;;;;;;28.67;34.29;100591.44;5016521;28;20492;-76
2022/08/22 07:25:53;;;;;;;11.10;7.03;;;;;;;28.83;34.42;100592.91;5034038;28;20098;-76
2022/08/22 07:28:27;;;;;;;10.02;6.50;;;;;;;29.04;33.68;100586.38;5033211;28;20068;-76
2022/08/22 07:31:00;;;;;;;12.38;7.20;;;;;;;29.12;33.46;100586.16;5016405;28;20049;-75
2022/08/22 07:33:48;;;;;;;11.68;7.00;;;;;;;29.28;33.84;100573.84;5032985;28;20100;-77
2022/08/22 07:36:20;;;;;;;19.52;7.43;;;;;;;29.46;33.50;100586.94;5032672;28;20037;-77
2022/08/22 07:39:16;;;;;;;12.90;7.28;;;;;;;29.55;33.09;100584.78;5034420;28;20056;-75
2022/08/22 07:41:53;;;;;;;13.55;7.15;;;;;;;29.50;33.22;100585.44;5032677;28;20128;-75
2022/08/22 07:44:24;;;;;;;21.35;7.55;;;;;;;29.29;33.20;100570.84;5000231;28;20115;-77
2022/08/22 07:46:50;;;;;;;14.48;8.98;;;;;;;29.11;33.77;100573.47;5016046;28;20489;-76
2022/08/22 07:49:23;;;;;;;21.38;8.32;;;;;;;29.24;33.75;100570.66;5032514;28;20138;-75
2022/08/22 07:51:54;;;;;;;20.00;7.90;;;;;;;29.40;33.73;100571.25;5032678;28;20045;-76
2022/08/22 07:54:50;;;;;;;13.77;7.55;;;;;;;29.93;33.02;100573.84;5033704;28;20040;-76
2022/08/22 07:57:30;;;;;;;15.80;7.38;;;;;;;29.99;32.52;100559.19;5032122;28;20144;-75
2022/08/22 08:00:00;;;;;;;15.52;7.60;;;;;;;29.76;32.81;100554.22;5032317;28;20049;-77
2022/08/22 08:02:27;;;;;;;14.57;7.78;;;;;;;29.89;33.04;100553.28;4999372;28;20107;-77
2022/08/22 08:04:56;;;;;;;14.00;7.82;;;;;;;30.01;33.06;100554.28;5033280;28;20049;-76
2022/08/22 08:07:27;;;;;;;14.52;7.30;;;;;;;29.80;33.06;100543.59;5032206;28;20053;-76
2022/08/22 08:10:11;;;;;;;16.73;7.68;;;;;;;29.84;33.31;100555.88;5015950;28;20102;-75
2022/08/22 08:12:43;;;;;;;14.10;7.97;;;;;;;29.71;33.58;100554.88;5033441;28;20135;-76
2022/08/22 08:15:18;;;;;;;19.20;7.78;;;;;;;29.55;33.87;100541.53;5015803;28;20087;-75
2022/08/22 08:17:48;;;;;;;12.68;7.55;;;;;;;29.63;33.75;100551.50;4999832;28;20037;-75
2022/08/22 08:20:22;;;;;;;9.95;7.45;;;;;;;29.60;33.48;100551.94;5032312;28;20053;-77
2022/08/22 08:22:49;;;;;;;17.00;7.50;;;;;;;29.90;33.52;100544.81;5000193;28;20041;-76
2022/08/22 08:25:20;;;;;;;18.42;8.00;;;;;;;30.00;32.60;100544.31;5048833;28;20407;-78
2022/08/22 08:30:45;;;;;;;16.50;8.00;;;;;;;29.72;33.23;100551.03;5032426;28;20049;-76
2022/08/22 08:33:18;;;;;;;16.30;7.55;;;;;;;29.73;32.99;100538.94;5048882;28;20072;-76
2022/08/22 08:35:53;;;;;;;17.30;7.47;;;;;;;30.09;32.93;100545.75;5031611;28;20056;-77
2022/08/22 08:38:29;;;;;;;18.05;8.23;;;;;;;29.93;32.84;100538.00;5033352;28;20046;-76
2022/08/22 08:41:19;;;;;;;12.15;7.18;;;;;;;29.85;32.53;100538.25;5033449;28;20458;-77
2022/08/22 08:44:27;;;;;;;11.23;7.50;;;;;;;29.88;32.65;100535.06;5015792;28;20144;-76
2022/08/22 08:47:20;;;;;;;17.02;7.93;;;;;;;30.18;32.45;100540.84;5021137;28;20143;-75
2022/08/22 08:50:04;;;;;;;19.67;7.20;;;;;;;30.62;32.00;100531.59;4999212;28;20053;-76
2022/08/22 08:52:33;;;;;;;15.98;7.55;;;;;;;30.87;31.37;100517.81;5033299;28;20045;-75
2022/08/22 08:55:05;;;;;;;14.43;7.50;;;;;;;30.72;31.24;100531.91;5016175;28;20052;-76
2022/08/22 08:57:36;;;;;;;11.90;7.18;;;;;;;30.78;30.86;100518.34;4999532;28;20045;-75
2022/08/22 09:00:13;;;;;;;16.17;7.68;;;;;;;30.69;31.04;100526.00;5018605;28;20045;-76
2022/08/22 09:02:51;;;;;;;12.55;7.35;;;;;;;30.98;30.94;100513.44;5017417;28;20416;-75
2022/08/22 09:05:26;;;;;;;9.75;7.38;;;;;;;31.11;30.36;100507.78;5002974;28;20136;-76
2022/08/22 09:07:55;;;;;;;18.58;7.13;;;;;;;31.06;30.64;100517.81;5017382;28;20509;-77
2022/08/22 09:10:30;;;;;;;13.48;7.07;;;;;;;31.48;30.57;100512.47;5015609;28;20390;-77
2022/08/22 09:13:03;;;;;;;13.38;7.57;;;;;;;31.94;29.78;100506.38;4998939;28;20049;-79
2022/08/22 09:15:38;;;;;;;8.88;6.13;;;;;;;32.39;28.61;100514.19;5031777;28;20065;-75
2022/08/22 09:18:13;;;;;;;9.63;6.60;;;;;;;32.22;28.50;100514.03;4998494;28;20042;-76
2022/08/22 09:21:16;;;;;;;10.10;6.55;;;;;;;32.47;28.70;100511.09;5015435;28;20049;-76
2022/08/22 09:23:46;;;;;;;8.45;5.85;;;;;;;32.49;28.05;100502.56;5014915;28;20054;-76
2022/08/22 09:26:40;;;;;;;12.63;6.40;;;;;;;32.14;28.86;100509.69;5031101;28;20045;-76
2022/08/22 09:29:28;;;;;;;10.02;6.70;;;;;;;31.74;29.69;100505.75;5014666;28;20037;-76
2022/08/22 09:32:20;;;;;;;14.45;6.63;;;;;;;31.52;29.53;100498.00;4998531;28;20049;-75
2022/08/22 09:35:07;;;;;;;9.82;6.40;;;;;;;31.63;29.77;100501.88;5031103;28;20063;-76
2022/08/22 09:37:55;;;;;;;15.23;6.72;;;;;;;31.83;29.08;100493.31;4998533;28;20095;-77
2022/08/22 09:40:38;;;;;;;56.33;50.10;;;;;;;32.23;29.29;100493.56;5032503;28;20511;-76
2022/08/22 09:43:14;;;;;;;8.13;6.25;;;;;;;32.20;28.45;100479.38;5031095;28;20041;-76
2022/08/22 09:46:05;;;;;;;15.45;6.65;;;;;;;31.89;29.09;100492.38;5032290;28;20045;-76
2022/08/22 09:48:41;;;;;;;12.65;6.53;;;;;;;32.09;28.99;100481.06;5001632;28;20412;-76
2022/08/22 09:51:25;;;;;;;12.10;6.60;;;;;;;32.30;28.79;100485.16;5018100;28;20190;-77
2022/08/22 09:54:22;;;;;;;11.10;7.00;;;;;;;32.23;28.88;100487.19;5001694;28;20049;-76
2022/08/22 09:57:17;;;;;;;14.13;6.22;;;;;;;32.67;28.30;100490.53;5018567;28;20582;-75
2022/08/22 09:59:55;;;;;;;12.50;6.10;;;;;;;32.65;28.17;100485.25;5034617;28;20143;-77
2022/08/22 10:02:45;;;;;;;14.55;7.15;;;;;;;32.36;28.36;100492.53;5036072;28;20453;-75
2022/08/22 10:05:35;;;;;;;19.73;6.30;;;;;;;32.47;28.25;100494.50;5035527;28;20103;-76
2022/08/22 10:08:19;;;;;;;12.73;6.47;;;;;;;32.47;28.26;100480.66;5018165;28;20045;-75
2022/08/22 10:11:12;;;;;;;13.93;6.25;;;;;;;33.60;27.71;100479.34;5034435;28;20041;-75
2022/08/22 10:13:51;;;;;;;11.35;6.15;;;;;;;34.13;26.59;100477.31;5034425;28;20068;-76
2022/08/22 10:16:49;;;;;;;8.20;5.97;;;;;;;33.75;26.69;100477.97;5035614;28;20550;-76
2022/08/22 10:19:38;;;;;;;9.00;6.38;;;;;;;33.32;27.26;100488.44;5025331;28;20550;-76
2022/08/22 10:22:10;;;;;;;11.95;6.22;;;;;;;33.49;27.13;100488.56;5001407;28;20040;-76
2022/08/22 10:24:54;;;;;;;14.00;6.40;;;;;;;33.74;26.71;100479.91;5001509;28;20072;-76
2022/08/22 10:27:43;;;;;;;21.77;6.88;;;;;;;33.82;26.57;100484.22;5034496;28;20037;-76
2022/08/22 10:30:33;;;;;;;14.70;6.70;;;;;;;33.55;27.15;100483.94;5034824;28;20512;-76
2022/08/22 10:33:09;;;;;;;11.88;5.80;;;;;;;33.88;27.17;100477.66;5033996;28;20131;-76
2022/08/22 10:36:02;;;;;;;8.20;5.93;;;;;;;34.18;26.16;100471.84;5035299;28;20037;-75
2022/08/22 10:38:44;;;;;;;12.68;6.70;;;;;;;34.80;26.15;100476.47;5034434;28;20045;-76
2022/08/22 10:41:55;;;;;;;10.70;6.35;;;;;;;35.54;25.15;100475.28;5017827;28;20103;-76
2022/08/22 10:44:40;;;;;;;11.77;5.82;;;;;;;36.05;24.52;100473.06;5012728;28;20050;-76
2022/08/22 10:47:49;;;;;;;12.63;6.32;;;;;;;36.12;24.31;100474.53;5014014;28;20037;-76
2022/08/22 10:50:23;;;;;;;11.30;6.38;;;;;;;36.01;24.20;100469.97;5014761;28;20061;-75
2022/08/22 10:55:49;;;;;;;9.45;5.50;;;;;;;35.94;24.14;100456.25;5017574;28;20107;-76
2022/08/22 10:58:24;;;;;;;7.55;5.80;;;;;;;35.54;24.30;100455.81;5033109;28;20129;-76
2022/08/22 11:01:00;;;;;;;9.75;6.25;;;;;;;35.07;25.24;100467.44;5034796;28;20049;-76
2022/08/22 11:03:55;;;;;;;11.30;5.88;;;;;;;35.94;24.79;100458.19;5050362;28;20214;-76
2022/08/22 11:06:28;;;;;;;14.07;6.45;;;;;;;37.05;23.33;100453.78;5034730;28;20045;-76
2022/08/22 11:09:12;;;;;;;18.17;6.55;;;;;;;36.93;23.24;100451.19;5035026;28;20488;-77
2022/08/22 11:11:41;;;;;;;9.68;6.35;;;;;;;36.90;23.36;100460.94;5033260;28;20195;-75
2022/08/22 11:14:13;;;;;;;13.98;6.00;;;;;;;36.42;23.39;100464.75;5016769;28;20553;-76
2022/08/22 11:17:04;;;;;;;14.82;6.03;;;;;;;36.52;23.43;100450.09;5033673;28;20499;-76
2022/08/22 11:20:07;;;;;;;16.63;7.60;;;;;;;36.57;23.63;100452.94;5049853;28;20095;-76
2022/08/22 11:23:10;;;;;;;10.02;5.95;;;;;;;37.29;22.58;100448.59;5016765;28;20084;-76
2022/08/22 11:25:53;;;;;;;12.02;6.13;;;;;;;37.15;23.04;100453.84;5032934;28;20385;-76
2022/08/22 11:28:47;;;;;;;13.55;5.90;;;;;;;38.07;22.24;100459.72;5033291;28;20045;-76
2022/08/22 11:31:31;;;;;;;8.73;5.78;;;;;;;37.72;21.99;100455.72;5016347;28;20049;-77
2022/08/22 11:34:20;;;;;;;13.05;5.85;;;;;;;37.30;22.21;100447.47;5000708;28;20050;-76
2022/08/22 11:36:53;;;;;;;9.30;5.50;;;;;;;36.84;22.87;100442.50;5034427;28;20041;-76
2022/08/22 11:39:51;;;;;;;9.30;5.90;;;;;;;37.10;22.89;100445.47;5032928;28;20050;-76
2022/08/22 11:42:28;;;;;;;15.25;6.00;;;;;;;37.03;22.86;100442.06;5032902;28;20075;-76
2022/08/22 11:44:57;;;;;;;12.27;5.43;;;;;;;36.54;23.45;100447.88;5032607;28;20049;-78
2022/08/22 11:47:29;;;;;;;8.63;5.60;;;;;;;36.03;23.87;100447.44;5033649;28;20046;-76
2022/08/22 11:50:13;;;;;;;10.80;6.20;;;;;;;36.66;23.52;100434.59;5033691;28;20061;-76
2022/08/22 11:53:09;;;;;;;14.05;6.28;;;;;;;37.77;21.99;100429.78;5034275;28;20045;-76
2022/08/22 11:55:53;;;;;;;7.90;6.10;;;;;;;38.49;21.52;100427.91;5033568;28;20132;-75
2022/08/22 11:58:47;;;;;;;10.27;5.68;;;;;;;38.11;21.66;100428.19;4999979;28;20041;-75
2022/08/22 12:01:18;;;;;;;11.65;5.85;;;;;;;37.48;22.37;100430.28;5000090;28;20060;-75
2022/08/22 12:04:05;;;;;;;12.40;5.50;;;;;;;37.30;22.53;100423.22;5033663;28;20088;-76
2022/08/22 12:06:37;;;;;;;10.80;6.13;;;;;;;37.40;22.18;100434.41;5015839;28;20072;-75
2022/08/22 12:09:12;;;;;;;12.77;5.85;;;;;;;37.78;21.82;100418.34;5015836;28;20045;-76
2022/08/22 12:11:56;;;;;;;8.20;6.03;;;;;;;38.23;21.43;100427.88;4999028;28;20141;-76
2022/08/22 12:14:54;;;;;;;20.33;5.95;;;;;;;37.10;22.50;100420.38;5015937;28;20077;-76
2022/08/22 12:17:44;;;;;;;12.80;6.00;;;;;;;37.58;21.98;100423.91;5033042;28;20118;-76
2022/08/22 12:20:34;;;;;;;8.20;5.72;;;;;;;37.08;22.35;100425.38;5016271;28;20049;-76
2022/08/22 12:23:00;;;;;;;9.77;5.70;;;;;;;37.59;22.13;100425.56;4999397;28;20395;-76
2022/08/22 12:25:47;;;;;;;9.05;5.68;;;;;;;38.37;21.66;100409.47;4999144;28;20141;-76